地図

経路データ

SID SEASON NUMBER BASIN SUBBASIN NAME ISO_TIME NATURE LAT LON WMO_WIND WMO_PRES WMO_AGENCY TRACK_TYPE DIST2LAND LANDFALL IFLAG USA_AGENCY USA_ATCF_ID USA_LAT USA_LON USA_RECORD USA_STATUS USA_WIND USA_PRES USA_SSHS USA_R34_NE USA_R34_SE USA_R34_SW USA_R34_NW USA_R50_NE USA_R50_SE USA_R50_SW USA_R50_NW USA_R64_NE USA_R64_SE USA_R64_SW USA_R64_NW USA_POCI USA_ROCI USA_RMW USA_EYE TOKYO_LAT TOKYO_LON TOKYO_GRADE TOKYO_WIND TOKYO_PRES TOKYO_R50_DIR TOKYO_R50_LONG TOKYO_R50_SHORT TOKYO_R30_DIR TOKYO_R30_LONG TOKYO_R30_SHORT TOKYO_LAND CMA_LAT CMA_LON CMA_CAT CMA_WIND CMA_PRES HKO_LAT HKO_LON HKO_CAT HKO_WIND HKO_PRES NEWDELHI_LAT NEWDELHI_LON NEWDELHI_GRADE NEWDELHI_WIND NEWDELHI_PRES NEWDELHI_CI NEWDELHI_DP NEWDELHI_POCI REUNION_LAT REUNION_LON REUNION_TYPE REUNION_WIND REUNION_PRES REUNION_TNUM REUNION_CI REUNION_RMW REUNION_R34_NE REUNION_R34_SE REUNION_R34_SW REUNION_R34_NW REUNION_R50_NE REUNION_R50_SE REUNION_R50_SW REUNION_R50_NW REUNION_R64_NE REUNION_R64_SE REUNION_R64_SW REUNION_R64_NW BOM_LAT BOM_LON BOM_TYPE BOM_WIND BOM_PRES BOM_TNUM BOM_CI BOM_RMW BOM_R34_NE BOM_R34_SE BOM_R34_SW BOM_R34_NW BOM_R50_NE BOM_R50_SE BOM_R50_SW BOM_R50_NW BOM_R64_NE BOM_R64_SE BOM_R64_SW BOM_R64_NW BOM_ROCI BOM_POCI BOM_EYE BOM_POS_METHOD BOM_PRES_METHOD NADI_LAT NADI_LON NADI_CAT NADI_WIND NADI_PRES WELLINGTON_LAT WELLINGTON_LON WELLINGTON_WIND WELLINGTON_PRES DS824_LAT DS824_LON DS824_STAGE DS824_WIND DS824_PRES TD9636_LAT TD9636_LON TD9636_STAGE TD9636_WIND TD9636_PRES TD9635_LAT TD9635_LON TD9635_WIND TD9635_PRES TD9635_ROCI NEUMANN_LAT NEUMANN_LON NEUMANN_CLASS NEUMANN_WIND NEUMANN_PRES MLC_LAT MLC_LON MLC_CLASS MLC_WIND MLC_PRES USA_GUST BOM_GUST BOM_GUST_PER REUNION_GUST REUNION_GUST_PER USA_SEAHGT USA_SEARAD_NE USA_SEARAD_SE USA_SEARAD_SW USA_SEARAD_NW STORM_SPEED STORM_DIR
1966215N20163 1966 51 WP MM NOT_NAMED 1966-08-02 18:00:00 TS 20.0000 163.000 1008 tokyo main 2777 2687 _OO___________ -1 20.0000 163.000 2 1008 0 0 0 20.0000 163.000 0 1008 31 9
1966215N20163 1966 51 WP MM NOT_NAMED 1966-08-02 21:00:00 TS 21.5425 163.270 main 2687 2618 _PP___________ -1 21.5501 163.449 2 1007 0 0 21.5349 163.091 0 1007 31 12
1966215N20163 1966 51 WP MM NOT_NAMED 1966-08-03 00:00:00 TS 23.0000 163.700 1006 tokyo main 2612 2581 _OO___________ -1 23.0000 164.000 2 1006 0 0 0 23.0000 163.400 0 1006 30 21
1966215N20163 1966 51 WP MM NOT_NAMED 1966-08-03 03:00:00 TS 24.3163 164.397 main 2583 2574 _PP___________ -1 24.2875 164.713 2 1005 0 0 24.3450 164.080 0 1005 29 29
1966215N20163 1966 51 WP MM NOT_NAMED 1966-08-03 06:00:00 TS 25.5500 165.250 1004 tokyo main 2578 2546 _OO___________ -1 25.5000 165.500 2 1004 0 0 0 25.6000 165.000 1 23 1004 30 32
1966215N20163 1966 51 WP MM NOT_NAMED 1966-08-03 09:00:00 TS 26.8543 166.165 main 2542 2483 _PP___________ -1 26.8250 166.287 2 1004 0 0 26.8835 166.043 1 23 1004 29 33
1966215N20163 1966 51 WP MM NOT_NAMED 1966-08-03 12:00:00 TS 28.0000 167.000 1004 tokyo main 2479 2436 _OO___________ -1 28.0000 167.000 2 1004 0 0 0 28.0000 167.000 1 23 1004 24 33
1966215N20163 1966 51 WP MM NOT_NAMED 1966-08-03 15:00:00 TS 28.8206 167.633 main 2436 2393 _PP___________ -1 28.8247 167.614 2 1004 0 0 28.8165 167.652 1 23 1004 17 30
1966215N20163 1966 51 WP MM NOT_NAMED 1966-08-03 18:00:00 TS 29.5000 168.000 1004 tokyo main 2393 2335 _OO___________ -1 29.5000 168.000 2 1004 0 0 0 29.5000 168.000 1 23 1004 15 18
1966215N20163 1966 51 WP MM NOT_NAMED 1966-08-03 21:00:00 TS 30.2119 168.149 main 2335 2267 _PP___________ -1 30.2119 168.149 2 1004 0 0 30.2119 168.149 1 23 1004 15 0
1966215N20163 1966 51 WP MM NOT_NAMED 1966-08-04 00:00:00 TS 31.0000 168.000 1004 tokyo main 2258 2153 _OO___________ -1 31.0000 168.000 2 1004 0 0 0 31.0000 168.000 1 23 1004 19 347
1966215N20163 1966 51 WP MM NOT_NAMED 1966-08-04 03:00:00 TS 32.0367 167.651 main 2153 2025 _PP___________ -1 32.0367 167.651 2 1002 0 0 32.0367 167.651 1 26 1002 22 337
1966215N20163 1966 51 WP MM NOT_NAMED 1966-08-04 06:00:00 TS 33.0000 167.000 1000 tokyo main 2025 1920 _OO___________ -1 33.0000 167.000 2 1000 0 0 0 33.0000 167.000 1 29 1000 21 320
1966215N20163 1966 51 WP MM NOT_NAMED 1966-08-04 09:00:00 TS 33.6131 166.075 main 1920 1827 _PP___________ -1 33.6131 166.075 2 999 0 0 33.6131 166.075 1 33 999 19 301
1966215N20163 1966 51 WP MM NOT_NAMED 1966-08-04 12:00:00 TS 34.0000 165.000 998 tokyo main 1822 1748 _OO___________ -1 34.0000 165.000 9 998 0 0 0 34.0000 165.000 2 38 998 19 290
1966215N20163 1966 51 WP MM NOT_NAMED 1966-08-04 15:00:00 TS 34.2507 163.923 main 1733 1666 _PP___________ -1 34.2507 163.923 9 997 0 0 34.2507 163.923 2 43 997 17 287
1966215N20163 1966 51 WP MM NOT_NAMED 1966-08-04 18:00:00 TS 34.5000 163.000 996 tokyo main 1666 1598 _OO___________ -1 34.5000 163.000 9 996 0 0 0 34.5000 163.000 3 48 996 14 298
1966215N20163 1966 51 WP MM NOT_NAMED 1966-08-04 21:00:00 TS 34.9239 162.387 main 1598 1523 _PP___________ -1 34.9239 162.387 9 997 0 0 34.9239 162.387 3 48 997 13 321
1966215N20163 1966 51 WP MM NOT_NAMED 1966-08-05 00:00:00 TS 35.5000 162.000 998 tokyo main 1523 1444 _OO___________ -1 35.5000 162.000 9 998 0 0 0 35.5000 162.000 3 48 998 14 336
1966215N20163 1966 51 WP MM NOT_NAMED 1966-08-05 03:00:00 TS 36.2123 161.675 main 1444 1363 _PP___________ -1 36.2123 161.675 9 998 0 0 36.2123 161.675 3 43 998 16 345
1966215N20163 1966 51 WP MM NOT_NAMED 1966-08-05 06:00:00 TS 37.0000 161.500 998 tokyo main 1363 1298 _OO___________ -1 37.0000 161.500 9 998 0 0 0 37.0000 161.500 2 38 998 16 353
1966215N20163 1966 51 WP MM NOT_NAMED 1966-08-05 09:00:00 TS 37.7498 161.425 main 1298 1238 _PP___________ -1 37.7498 161.425 9 999 0 0 37.7498 161.425 2 38 999 15 0
1966215N20163 1966 51 WP MM NOT_NAMED 1966-08-05 12:00:00 TS 38.5000 161.500 1000 tokyo main 1238 1196 _OO___________ -1 38.5000 161.500 9 1000 0 0 0 38.5000 161.500 2 38 1000 15 8
1966215N20163 1966 51 WP MM NOT_NAMED 1966-08-05 15:00:00 TS 39.2123 161.676 main 1196 1156 _PP___________ -1 39.2123 161.676 9 1001 0 0 39.2123 161.676 2 33 1001 16 14
1966215N20163 1966 51 WP MM NOT_NAMED 1966-08-05 18:00:00 TS 40.0000 162.000 1002 tokyo main 1156 1122 _OO___________ -1 40.0000 162.000 2 1002 0 0 0 40.0000 162.000 1 29 1002 18 19
1966215N20163 1966 51 WP MM NOT_NAMED 1966-08-05 21:00:00 TS 40.9507 162.458 main 1123 1066 _PP___________ -1 40.9507 162.458 2 1002 0 0 40.9507 162.458 1 26 1002 21 21
1966215N20163 1966 51 WP MM NOT_NAMED 1966-08-06 00:00:00 TS 42.0000 163.000 1002 tokyo main 1060 _OO___________ -1 42.0000 163.000 2 1002 0 0 0 42.0000 163.000 1 23 1002 23 21

デジタル台風データ・検索

IBTrACS Databaseについて

本データベースは、米国NOAAが公開する1842年以降の世界の熱帯低気圧のベストトラックデータアーカイブInternational Best Track Archive for Climate Stewardship (IBTrACS)を、ウェブで閲覧しやすい形式に変換したものです。

最終更新日:2021-10-19